Cognac-Châteaubernard (BA 709) Air Base

LFBG · Charente, Nouvelle-Aquitaine, 法国

罗盘
风向 的 风向 070° Cognac-Châteaubernard (BA 709) Air Base 5/23
风: 4 kt, 2 beaufort

4 kt

1 kt
改变
0 1.000 2.000 3.000 4.000 5.000
垂直能见度
METAR LFBE 270430Z AUTO 07004KT 1900 BR VV/// 02/02 Q1023

METAR Cognac-Châteaubernard (BA 709) Air Base - LFBG/CNG

Cognac-Châteaubernard (BA 709) Air Base是,法国中的中型机场。 该机场有3条跑道: 5/23, 9/27 和 8/26. 该领域的国际民航组织标志是LFBG 它的国际航空运输协会代码是CNG.

这份报告是针对2022年11月27日 05:30, 当地时间在Bergerac-Roumanière Airport进行的。

机场观察

风向为070°,速度为4 kt。

可见度为1,9 km。

垂直能见度为0 ft 没有观察到天花板。

当前天气为薄雾。 温度为2 °C,阵风为-2 °C。 露点为2 °C,相对湿度为100%。 海平面上的气压为1023 hPa (QNH)。

白天

今天,太阳从08:16升起,在17:21降落。 这适用于Cognac-Châteaubernard (BA 709) Air Base,世界夏令时可能有所不同。 当地时间与世界标准时间之间的时差为+1 小时。 当前,没有夏令时有效。

公司介绍

在这个机场,你可以找到飞行俱乐部。 本场上唯一已知的公司是Les Ailes Cognaçaises。

体会

到Vliegles.nl去找飞行课程,跳伞和其他飞行体验。 浏览页面,了解Cognac-Châteaubernard (BA 709) Air Base附近所有可用的活动。 你也可以使用搜索功能来寻找你所在地附近的特定飞行课程、跳伞或其他飞行体验。

警示语

垂直能见度为0 ft。

跑道

Id 标题 侧风 逆风 侧风 %
5/23 050°-230° 1 kt 4 kt 34 %
9/27 084°-264° 4 kt 24 %
8/26 084°-264° 4 kt 24 %

逆风成分最大的方向会被突出显示,并用于横风计算。 这并不一定意味着这个方向在使用。

乌云

0 ft VV 垂直能见度

温度 & 天气

天气 薄雾
温度 2 °C
露点 2 °C
相对湿度 100%
风寒 -2 °C
Kp-index 3 (0-9)

白天

日出
08:10 (2:13)
中午
12:45
日落
17:20

小工具

你想在你的网站上有一个关于Cognac-Châteaubernard (BA 709) Air Base的当前航空天气(METAR)的小部件吗?

显示HTML代码

我们和第三方通过cookies跟踪您在我们网站上的互联网行为。如果你继续,我们认为你同意我们的饼干政策